Davis Junction, IL (61020)

12:59 AM CDT on May 05, 2015 (GMT -0500)
Highland Elementary | | Change Station
CLOSE
Current Station
Personal Weather Station
Location: Stillman Valley, IL
Elevation: 755 ft
Nearby Weather Stations

Elev 755 ft 42.10 °N, 89.18 °W | Updated 4 minutes ago

Rain
Rain
50.2 °F
Feels Like 50.2 °F
N
2.0
Wind Variable Wind from NE
Gusts 5.0 mph

Today
High -- | Low -- °F
--% Chance of Precip.
Yesterday
High -- | Low -- °F
Precip. -- in
5:47 AM 7:59 PM
Full, 99% visible
Pressure 30.20 in
Visibility 6.0 miles
Clouds Scattered Clouds 7000 ft
Overcast 8500 ft
Dew Point 48 °F
Humidity 93%
Rainfall 0.15 in
Snow Depth Not available.
UV 0 out of 12
Pollen 1.30 out of 12
Air Quality Not available.
Flu Activity Local Activity
METAR KRFD 050554Z 07006KT 6SM RA SCT070 OVC085 11/08 A3020 RMK AO2 SLP225 P0033 60039 T01060078 10222 20106 402440106 50012

More Conditions Fewer Conditions

Pressure 30.20 in
Visibility 6.0 miles
Clouds Scattered Clouds 7000 ft
Overcast 8500 ft
Dew Point 48 °F
Humidity 93%
Rainfall 0.15 in
Snow Depth Not available.
UV 0 out of 12
Pollen 1.30 out of 12
Air Quality Not available.
Flu Activity Local Activity
METAR KRFD 050554Z 07006KT 6SM RA SCT070 OVC085 11/08 A3020 RMK AO2 SLP225 P0033 60039 T01060078 10222 20106 402440106 50012

More Conditions Fewer Conditions

Nepal has a long way to go to dig out and rebuild from a devastating earthquake. We have teamed up with several charities and organizations to make contributing to the relief effort as easy as possible.
How you can help: Portlight Strategies | Red Cross

10-Day Weather Forecast

Almanac

Astronomy

May. 05, 2015 Rise Set
Actual Time
Civil Twilight
Nautical Twilight
Astronomical Twilight
Moon
Length of Visible Light
Length of Day
Tomorrow will be .
, % of the Moon is Illuminated

Today's Extremes

State Highs State Lows

Community

WunderPhotos

Upload Photos

1,818,814 photos uploaded!

WunderBlogs® & News

Nearby

Air Quality

  Air Quality AQ Index Pollutant
Not available.

Snow Depth

Station Depth Elevation

Earthquake Activity

City Distance Mag. Time & Date
Minimum magnitude displayed is 2.5.

Coastal Water Temperatures

Place Temperature

Stations

Nearby Weather Stations

Station Location Temp. Windchill Dew Point Humidity Wind Precip. Elev Updated Type